createdAt,value
2022-08-30T00:02:54.954Z,59.39
2022-08-30T00:07:59.599Z,59.59
2022-08-30T00:13:03.220Z,59.83
2022-08-30T00:18:06.854Z,59.56
2022-08-30T00:23:10.927Z,59.83
2022-08-30T00:28:14.386Z,59.53
2022-08-30T00:33:17.862Z,59.84
2022-08-30T00:38:24.256Z,59.87
2022-08-30T00:43:31.021Z,59.68
2022-08-30T00:48:34.523Z,60.29
2022-08-30T00:53:42.353Z,60.32
2022-08-30T00:58:48.278Z,60.42
2022-08-30T01:03:51.196Z,60.42
2022-08-30T01:08:55.478Z,60.45
2022-08-30T01:13:58.426Z,60.42
2022-08-30T01:19:01.671Z,60.33
2022-08-30T01:24:08.471Z,60.69
2022-08-30T01:29:17.884Z,60.15
2022-08-30T01:34:20.660Z,60.89
2022-08-30T01:39:25.942Z,60.53
2022-08-30T01:44:28.626Z,60.68
2022-08-30T01:49:31.344Z,60.86
2022-08-30T01:54:38.586Z,60.70
2022-08-30T01:59:47.369Z,60.79
2022-08-30T02:04:51.739Z,60.85
2022-08-30T02:09:56.670Z,60.65
2022-08-30T02:14:59.345Z,60.19
2022-08-30T02:20:02.227Z,60.87
2022-08-30T02:25:20.608Z,61.14
2022-08-30T02:30:24.052Z,61.04
2022-08-30T02:35:27.025Z,60.75
2022-08-30T02:40:31.627Z,60.74
2022-08-30T02:45:34.913Z,60.30
2022-08-30T02:50:40.854Z,60.86
2022-08-30T02:55:45.857Z,61.15
2022-08-30T03:00:48.578Z,61.04
2022-08-30T03:05:54.018Z,60.71
2022-08-30T03:10:58.095Z,60.87
2022-08-30T03:16:00.816Z,61.31
2022-08-30T03:21:04.353Z,61.32
2022-08-30T03:26:08.528Z,61.41
2022-08-30T03:31:11.547Z,60.75
2022-08-30T03:36:14.290Z,61.43
2022-08-30T03:41:18.392Z,62.16
2022-08-30T03:46:21.078Z,62.49
2022-08-30T03:51:29.683Z,62.50
2022-08-30T03:56:33.845Z,62.84
2022-08-30T04:01:36.609Z,62.79
2022-08-30T04:06:39.567Z,63.23
2022-08-30T04:11:43.686Z,63.10
2022-08-30T04:16:46.637Z,63.14
2022-08-30T04:21:49.617Z,63.30
2022-08-30T04:26:53.647Z,63.54
2022-08-30T04:31:56.364Z,63.41
2022-08-30T04:36:59.064Z,63.89
2022-08-30T04:42:03.288Z,63.83
2022-08-30T04:47:06.160Z,63.98
2022-08-30T04:52:10.852Z,63.90
2022-08-30T04:57:14.968Z,64.30
2022-08-30T05:02:18.192Z,64.49
2022-08-30T05:07:20.957Z,64.17
2022-08-30T05:12:25.642Z,64.29
2022-08-30T05:17:28.437Z,64.25
2022-08-30T05:22:31.159Z,64.47
2022-08-30T05:27:37.808Z,64.53
2022-08-30T05:32:41.146Z,64.77
2022-08-30T05:37:44.382Z,64.78
2022-08-30T05:42:48.747Z,64.62
2022-08-30T05:47:51.477Z,64.50
2022-08-30T05:52:54.375Z,64.60
2022-08-30T05:57:59.426Z,64.50
2022-08-30T06:03:03.148Z,64.63
2022-08-30T06:08:05.968Z,64.84
2022-08-30T06:13:10.683Z,64.91
2022-08-30T06:18:14.290Z,64.93
2022-08-30T06:23:17.813Z,64.97
2022-08-30T06:28:21.995Z,64.87
2022-08-30T06:33:24.708Z,64.98
2022-08-30T06:38:27.789Z,64.74
2022-08-30T06:43:32.004Z,64.85
2022-08-30T06:48:34.878Z,65.14
2022-08-30T06:53:37.727Z,65.17
2022-08-30T06:58:41.983Z,65.27
2022-08-30T07:03:45.124Z,65.17
2022-08-30T07:08:50.527Z,65.16
2022-08-30T07:14:01.391Z,65.30
2022-08-30T07:19:05.803Z,65.33
2022-08-30T07:24:10.116Z,65.16
2022-08-30T07:29:14.440Z,65.12
2022-08-30T07:34:19.778Z,65.43
2022-08-30T07:39:24.151Z,65.04
2022-08-30T07:44:28.499Z,65.24
2022-08-30T07:49:31.181Z,65.09
2022-08-30T07:54:34.115Z,65.43
2022-08-30T07:59:38.120Z,65.02
2022-08-30T08:04:40.859Z,65.17
2022-08-30T08:09:43.648Z,65.34
2022-08-30T08:14:47.664Z,65.31
2022-08-30T08:19:50.344Z,64.97
2022-08-30T08:24:53.037Z,65.09
2022-08-30T08:29:57.098Z,65.16
2022-08-30T08:34:59.771Z,65.33
2022-08-30T08:40:02.524Z,65.18
2022-08-30T08:45:12.532Z,65.26
2022-08-30T08:50:20.072Z,65.43
2022-08-30T08:55:24.901Z,64.91
2022-08-30T09:00:29.971Z,65.40
2022-08-30T09:05:38.990Z,65.27
2022-08-30T09:10:51.164Z,65.33
2022-08-30T09:15:59.478Z,65.00
2022-08-30T09:21:07.415Z,65.16
2022-08-30T09:26:10.586Z,65.29
2022-08-30T09:31:22.302Z,65.20
2022-08-30T09:36:31.756Z,65.21
2022-08-30T09:41:42.783Z,64.88
2022-08-30T09:46:50.843Z,65.22
2022-08-30T09:52:00.425Z,64.96
2022-08-30T09:57:13.242Z,64.87
2022-08-30T10:02:44.120Z,64.77
2022-08-30T10:07:59.096Z,64.87
2022-08-30T10:13:15.409Z,65.07
2022-08-30T10:18:26.689Z,64.94
2022-08-30T10:23:33.785Z,64.74
2022-08-30T10:28:43.052Z,65.00
2022-08-30T10:33:57.280Z,65.16
2022-08-30T10:39:02.220Z,65.10
2022-08-30T10:44:12.245Z,65.06
2022-08-30T10:49:20.620Z,64.90
2022-08-30T10:54:32.586Z,65.14
2022-08-30T10:59:40.223Z,65.10
2022-08-30T11:05:04.393Z,65.24
2022-08-30T11:10:25.782Z,64.87
2022-08-30T11:15:32.242Z,65.22
2022-08-30T11:20:42.016Z,64.76
2022-08-30T11:25:57.409Z,65.15
2022-08-30T11:31:07.234Z,64.98
2022-08-30T11:36:13.493Z,65.34
2022-08-30T11:41:34.188Z,65.18
2022-08-30T11:46:40.893Z,64.97
2022-08-30T11:57:37.427Z,64.68
2022-08-30T12:02:49.963Z,65.07
2022-08-30T12:08:03.082Z,64.72
2022-08-30T12:13:07.170Z,65.06
2022-08-30T12:18:31.483Z,64.81
2022-08-30T12:23:44.551Z,65.01
2022-08-30T12:28:50.713Z,64.87
2022-08-30T12:33:56.645Z,64.72
2022-08-30T12:39:10.865Z,64.86
2022-08-30T12:44:17.064Z,65.05
2022-08-30T12:49:21.909Z,64.52
2022-08-30T12:54:31.782Z,64.59
2022-08-30T12:59:52.859Z,64.91
2022-08-30T13:04:58.008Z,64.50
2022-08-30T13:10:08.682Z,64.90
2022-08-30T13:15:20.138Z,65.07
2022-08-30T13:20:26.375Z,63.63
2022-08-30T13:25:32.801Z,63.24
2022-08-30T13:30:36.359Z,63.27
2022-08-30T13:35:39.491Z,63.44
2022-08-30T13:40:44.408Z,63.49
2022-08-30T13:45:47.401Z,62.84
2022-08-30T13:50:50.206Z,63.03
2022-08-30T13:55:54.588Z,63.35
2022-08-30T14:00:57.463Z,63.36
2022-08-30T14:06:29.518Z,62.77
2022-08-30T14:11:28.236Z,62.62
2022-08-30T14:16:31.798Z,62.18
2022-08-30T14:21:34.677Z,62.12
2022-08-30T14:26:41.928Z,62.11
2022-08-30T14:31:47.024Z,61.79
2022-08-30T14:36:50.428Z,61.89
2022-08-30T14:41:56.541Z,61.79
2022-08-30T14:46:59.336Z,61.20
2022-08-30T14:52:03.813Z,60.80
2022-08-30T14:57:07.835Z,60.19
2022-08-30T15:02:10.682Z,59.80
2022-08-30T15:07:13.916Z,59.68
2022-08-30T15:12:18.177Z,59.89
2022-08-30T15:17:20.981Z,59.81
2022-08-30T15:22:23.728Z,59.78
2022-08-30T15:27:28.610Z,59.17
2022-08-30T15:32:32.095Z,59.19
2022-08-30T15:37:35.114Z,58.65
2022-08-30T15:42:39.331Z,58.65
2022-08-30T15:47:42.294Z,58.36
2022-08-30T15:52:45.023Z,58.38
2022-08-30T15:57:49.097Z,57.84
2022-08-30T16:02:53.212Z,56.84
2022-08-30T16:07:56.002Z,56.42
2022-08-30T16:13:01.633Z,56.60
2022-08-30T16:18:05.789Z,56.60
2022-08-30T16:23:08.789Z,57.32
2022-08-30T16:28:12.834Z,57.38
2022-08-30T16:33:15.955Z,57.53
2022-08-30T16:38:18.864Z,57.49
2022-08-30T16:43:23.937Z,57.84
2022-08-30T16:48:26.723Z,57.75
2022-08-30T16:53:30.092Z,57.82
2022-08-30T16:58:34.237Z,57.94
2022-08-30T17:03:37.694Z,57.92
2022-08-30T17:08:42.025Z,58.08
2022-08-30T17:13:46.106Z,58.19
2022-08-30T17:18:48.946Z,58.42
2022-08-30T17:23:51.894Z,58.20
2022-08-30T17:28:55.985Z,58.03
2022-08-30T17:34:03.318Z,58.18
2022-08-30T17:39:11.042Z,58.19
2022-08-30T17:44:15.758Z,58.07
2022-08-30T17:49:18.711Z,58.10
2022-08-30T17:54:21.908Z,58.00
2022-08-30T17:59:29.203Z,58.18
2022-08-30T18:04:35.409Z,58.86
2022-08-30T18:09:38.603Z,58.68
2022-08-30T18:14:42.590Z,59.00
2022-08-30T18:19:46.095Z,59.15
2022-08-30T18:24:49.500Z,59.22
2022-08-30T18:29:53.553Z,59.32
2022-08-30T18:34:56.364Z,59.32
2022-08-30T18:40:01.100Z,59.37
2022-08-30T18:45:14.706Z,59.45
2022-08-30T18:50:18.576Z,59.48
2022-08-30T18:55:22.837Z,59.67
2022-08-30T19:00:26.919Z,59.61
2022-08-30T19:05:29.880Z,59.76
2022-08-30T19:10:33.429Z,59.70
2022-08-30T19:15:37.597Z,59.68
2022-08-30T19:20:40.575Z,59.64
2022-08-30T19:25:44.624Z,59.75
2022-08-30T19:30:49.381Z,59.64
2022-08-30T19:35:52.202Z,59.74
2022-08-30T19:40:58.931Z,59.72
2022-08-30T19:46:03.111Z,59.87
2022-08-30T19:51:08.306Z,59.79
2022-08-30T19:56:11.372Z,59.93
2022-08-30T20:01:32.524Z,60.03
2022-08-30T20:06:37.025Z,60.04
2022-08-30T20:11:42.167Z,59.80
2022-08-30T20:16:47.446Z,59.87
2022-08-30T20:21:50.229Z,59.73
2022-08-30T20:26:53.870Z,59.99
2022-08-30T20:31:58.035Z,59.48
2022-08-30T20:37:00.892Z,59.21
2022-08-30T20:42:04.138Z,59.42
2022-08-30T20:47:08.452Z,58.61
2022-08-30T20:52:11.296Z,58.52
2022-08-30T20:57:14.879Z,59.02
2022-08-30T21:02:19.065Z,59.16
2022-08-30T21:07:21.847Z,59.41
2022-08-30T21:12:25.122Z,59.15
2022-08-30T21:17:30.195Z,58.76
2022-08-30T21:22:32.939Z,58.62
2022-08-30T21:27:35.830Z,58.65
2022-08-30T21:32:39.915Z,58.59
2022-08-30T21:37:42.634Z,59.07
2022-08-30T21:42:48.296Z,58.60
2022-08-30T21:47:52.286Z,58.62
2022-08-30T21:52:54.971Z,58.65
2022-08-30T21:57:57.668Z,58.93
2022-08-30T22:03:01.798Z,58.93
2022-08-30T22:08:04.852Z,59.25
2022-08-30T22:13:10.035Z,59.17
2022-08-30T22:18:14.715Z,59.25
2022-08-30T22:23:19.111Z,59.36
2022-08-30T22:28:23.307Z,59.62
2022-08-30T22:33:27.422Z,59.62
2022-08-30T22:38:30.099Z,59.84
2022-08-30T22:43:32.936Z,59.60
2022-08-30T22:48:38.412Z,60.02
2022-08-30T22:53:41.812Z,59.83
2022-08-30T22:58:45.494Z,59.95
2022-08-30T23:03:49.981Z,59.98
2022-08-30T23:08:52.801Z,59.86
2022-08-30T23:13:55.655Z,60.09
2022-08-30T23:18:59.789Z,60.12
2022-08-30T23:24:20.157Z,59.90
2022-08-30T23:29:40.938Z,60.27
2022-08-30T23:35:02.805Z,60.69
2022-08-30T23:40:24.559Z,60.71
2022-08-30T23:45:45.136Z,60.53
2022-08-30T23:51:06.697Z,60.83
2022-08-30T23:56:28.804Z,61.09
